Time;durP1;ratioP1;P1;durP2;ratioP2;P2;SDS_P1;SDS_P2;PMS_P1;PMS_P2;Temp;Humidity;BMP_temperature;BMP_pressure;BME280_temperature;BME280_humidity;BME280_pressure;Samples;Min_cycle;Max_cycle;Signal;HPM_P1;HPM_P2
2022/07/25 00:01:45;;;;;;;;;13.75;13.00;;;;;29.15;39.15;100796.28;4962507;28;45325;-60
2022/07/25 00:04:11;;;;;;;;;17.00;14.50;;;;;29.14;39.45;100793.75;4962344;28;45394;-60
2022/07/25 00:06:40;;;;;;;;;12.00;10.00;;;;;29.10;39.50;100790.66;4962225;28;45357;-60
2022/07/25 00:09:06;;;;;;;;;14.75;13.00;;;;;29.09;39.29;100791.69;4962766;28;45396;-60
2022/07/25 00:11:32;;;;;;;;;12.75;11.00;;;;;29.06;39.63;100789.38;4962286;28;45324;-60
2022/07/25 00:13:58;;;;;;;;;12.50;11.00;;;;;29.05;39.79;100770.63;4962239;28;45983;-60
2022/07/25 00:16:23;;;;;;;;;11.00;11.00;;;;;29.03;39.42;100770.00;4962265;28;45278;-60
2022/07/25 00:18:49;;;;;;;;;12.25;11.50;;;;;29.00;40.15;100773.16;4962282;28;45562;-60
2022/07/25 00:21:14;;;;;;;;;13.25;10.25;;;;;28.97;39.65;100773.56;4962380;28;45444;-60
2022/07/25 00:23:40;;;;;;;;;11.75;10.25;;;;;28.95;39.61;100762.94;4962301;28;45397;-60
2022/07/25 00:26:05;;;;;;;;;12.00;11.50;;;;;28.91;40.33;100762.53;4961940;28;45349;-60
2022/07/25 00:28:31;;;;;;;;;12.00;11.25;;;;;28.91;39.82;100762.53;4962394;28;45483;-60
2022/07/25 00:30:56;;;;;;;;;10.50;10.50;;;;;28.89;39.83;100752.88;4962196;28;45330;-60
2022/07/25 00:33:22;;;;;;;;;14.50;12.00;;;;;28.88;39.95;100752.03;4962302;28;45745;-60
2022/07/25 00:35:47;;;;;;;;;14.75;13.25;;;;;28.86;40.46;100761.44;4960861;28;45350;-60
2022/07/25 00:38:13;;;;;;;;;10.50;10.50;;;;;28.84;40.58;100761.66;4949929;28;45407;-60
2022/07/25 00:40:38;;;;;;;;;13.75;12.00;;;;;28.82;40.77;100762.91;4956829;28;45452;-60
2022/07/25 00:43:04;;;;;;;;;14.75;12.00;;;;;28.81;40.75;100763.94;4962035;28;45648;-60
2022/07/25 00:45:30;;;;;;;;;13.00;12.00;;;;;28.78;40.26;100754.34;4962015;28;45365;-60
2022/07/25 00:47:55;;;;;;;;;12.50;11.75;;;;;28.76;40.87;100748.31;4962166;28;45499;-60
2022/07/25 00:50:21;;;;;;;;;13.75;12.00;;;;;28.74;40.86;100753.09;4961987;28;45201;-60
2022/07/25 00:52:47;;;;;;;;;12.00;12.00;;;;;28.71;41.13;100744.56;4961993;28;45574;-60
2022/07/25 00:55:13;;;;;;;;;14.50;12.50;;;;;28.70;40.57;100748.31;4961885;28;45277;-60
2022/07/25 00:57:38;;;;;;;;;12.25;10.25;;;;;28.69;40.56;100749.38;4961909;28;45538;-60
2022/07/25 01:00:07;;;;;;;;;14.00;12.75;;;;;28.67;40.91;100741.41;4961709;28;45375;-60
2022/07/25 01:02:33;;;;;;;;;13.25;11.50;;;;;28.67;40.62;100757.69;4961657;28;45330;-60
2022/07/25 01:04:59;;;;;;;;;13.50;12.00;;;;;28.62;40.82;100766.47;4960513;28;45327;-60
2022/07/25 01:07:25;;;;;;;;;16.00;12.50;;;;;28.62;41.39;100766.47;4961973;28;45373;-60
2022/07/25 01:09:50;;;;;;;;;14.75;12.50;;;;;28.61;40.69;100763.97;4961886;28;45318;-60
2022/07/25 01:12:16;;;;;;;;;13.00;13.00;;;;;28.59;41.38;100775.00;4961422;28;45253;-59
2022/07/25 01:14:41;;;;;;;;;13.25;11.75;;;;;28.57;41.07;100782.50;4976383;28;45268;-60
2022/07/25 01:17:07;;;;;;;;;15.00;11.50;;;;;28.55;41.71;100770.22;4961595;28;45432;-60
2022/07/25 01:19:33;;;;;;;;;9.75;9.50;;;;;28.53;41.42;100761.47;4965092;28;45377;-60
2022/07/25 01:21:58;;;;;;;;;10.50;10.00;;;;;28.53;41.19;100764.19;4965033;28;45310;-60
2022/07/25 01:24:24;;;;;;;;;10.50;10.50;;;;;28.52;40.86;100776.06;4964908;28;45724;-60
2022/07/25 01:26:49;;;;;;;;;12.25;12.25;;;;;28.51;41.16;100771.66;4965101;28;45392;-60
2022/07/25 01:29:15;;;;;;;;;10.50;10.50;;;;;28.50;41.86;100770.81;4965111;28;45356;-60
2022/07/25 01:31:40;;;;;;;;;9.00;8.25;;;;;28.47;41.37;100762.28;4964665;28;45444;-60
2022/07/25 01:34:06;;;;;;;;;12.00;10.50;;;;;28.44;41.71;100766.25;4964665;28;45329;-60
2022/07/25 01:36:31;;;;;;;;;11.25;10.75;;;;;28.42;41.16;100762.91;4965040;28;45429;-60
2022/07/25 01:38:57;;;;;;;;;11.50;10.50;;;;;28.40;41.54;100764.16;4947199;28;45446;-60
2022/07/25 01:41:22;;;;;;;;;9.50;9.25;;;;;28.36;41.71;100767.28;4964661;28;45223;-60
2022/07/25 01:43:48;;;;;;;;;8.50;8.50;;;;;28.31;41.52;100772.47;4964636;28;45277;-60
2022/07/25 01:46:13;;;;;;;;;10.25;9.00;;;;;28.28;41.27;100770.16;4964752;28;45452;-60
2022/07/25 01:48:39;;;;;;;;;9.75;8.75;;;;;28.24;42.10;100771.59;4964908;28;45280;-59
2022/07/25 01:51:05;;;;;;;;;11.50;9.50;;;;;28.21;41.40;100766.59;4964545;28;46003;-60
2022/07/25 01:53:31;;;;;;;;;10.25;9.25;;;;;28.16;42.01;100760.97;4963242;28;45620;-60
2022/07/25 01:55:56;;;;;;;;;14.25;10.00;;;;;28.13;41.76;100755.97;4964626;28;45241;-60
2022/07/25 01:58:22;;;;;;;;;10.50;9.00;;;;;28.08;41.52;100767.41;4964502;28;45488;-59
2022/07/25 02:00:47;;;;;;;;;10.00;10.00;;;;;28.03;42.08;100763.63;4964463;28;45303;-60
2022/07/25 02:03:31;;;;;;;;;11.75;8.75;;;;;27.95;41.90;100756.53;4964463;28;45353;-60
2022/07/25 02:06:02;;;;;;;;;11.00;11.00;;;;;27.88;42.31;100771.09;4964555;28;45461;-60
2022/07/25 02:08:29;;;;;;;;;10.00;8.50;;;;;27.82;42.31;100770.03;4963049;28;45192;-60
2022/07/25 02:10:56;;;;;;;;;10.75;9.25;;;;;27.75;42.11;100763.75;4963899;28;46226;-60
2022/07/25 02:13:22;;;;;;;;;10.25;9.75;;;;;27.67;42.46;100769.34;4964175;28;45302;-60
2022/07/25 02:15:47;;;;;;;;;9.00;7.50;;;;;27.59;42.30;100759.50;4964239;28;45480;-59
2022/07/25 02:18:13;;;;;;;;;8.00;8.00;;;;;27.51;42.22;100760.50;4963415;28;45508;-60
2022/07/25 02:20:38;;;;;;;;;8.50;6.75;;;;;27.45;42.84;100763.19;4963145;28;45658;-60
2022/07/25 02:23:04;;;;;;;;;10.00;8.50;;;;;27.37;42.37;100764.19;4963012;28;45264;-59
2022/07/25 02:25:31;;;;;;;;;12.50;11.25;;;;;27.30;42.53;100765.19;4962966;28;45293;-60
2022/07/25 02:27:57;;;;;;;;;15.25;10.25;;;;;27.23;42.85;100774.09;4963107;28;45226;-60
2022/07/25 02:30:23;;;;;;;;;9.75;7.75;;;;;27.16;42.89;100758.84;4962707;28;45354;-60
2022/07/25 02:32:49;;;;;;;;;9.00;8.50;;;;;27.07;43.14;100760.06;4962614;28;45151;-59
2022/07/25 02:35:14;;;;;;;;;7.50;7.50;;;;;26.99;43.01;100766.41;4962979;28;45408;-60
2022/07/25 02:37:40;;;;;;;;;8.00;8.00;;;;;26.93;43.41;100770.72;4954900;28;45421;-60
2022/07/25 02:40:06;;;;;;;;;9.50;9.00;;;;;26.84;43.52;100769.22;4953395;28;45490;-60
2022/07/25 02:42:32;;;;;;;;;7.25;7.25;;;;;26.76;43.65;100768.53;4962509;28;45346;-59
2022/07/25 02:44:57;;;;;;;;;8.25;6.50;;;;;26.68;43.65;100773.03;4962785;28;45460;-59
2022/07/25 02:47:23;;;;;;;;;6.00;4.75;;;;;26.61;43.59;100771.31;4962782;28;45312;-60
2022/07/25 02:49:48;;;;;;;;;4.25;4.25;;;;;26.53;43.51;100763.34;4961179;28;46329;-59
2022/07/25 02:52:14;;;;;;;;;7.50;7.50;;;;;26.46;43.54;100768.69;4962346;28;45385;-60
2022/07/25 02:54:39;;;;;;;;;7.00;5.75;;;;;26.41;43.45;100773.84;4962714;28;45242;-60
2022/07/25 02:57:05;;;;;;;;;7.25;6.75;;;;;26.39;43.63;100776.75;4962379;28;45318;-59
2022/07/25 02:59:30;;;;;;;;;6.00;6.00;;;;;26.36;43.56;100773.53;4962520;28;45371;-59
2022/07/25 03:01:56;;;;;;;;;5.25;5.25;;;;;26.24;43.73;100767.84;4962271;28;45330;-60
2022/07/25 03:04:21;;;;;;;;;7.50;5.00;;;;;26.13;43.75;100771.03;4962380;28;45295;-60
2022/07/25 03:06:47;;;;;;;;;6.25;6.25;;;;;26.02;43.22;100775.06;4962495;28;45269;-60
2022/07/25 03:09:12;;;;;;;;;8.50;6.25;;;;;25.95;43.47;100779.56;4962163;28;45231;-60
2022/07/25 03:11:38;;;;;;;;;8.00;7.00;;;;;25.87;43.76;100776.97;4961811;28;45329;-59
2022/07/25 03:14:03;;;;;;;;;8.75;7.50;;;;;25.81;43.61;100777.72;4962269;28;45231;-59
2022/07/25 03:16:29;;;;;;;;;6.50;6.25;;;;;25.73;43.90;100772.44;4962063;28;45270;-59
2022/07/25 03:18:54;;;;;;;;;7.00;7.00;;;;;25.68;44.14;100778.38;4918403;28;1295696;-59
2022/07/25 03:21:20;;;;;;;;;5.75;5.00;;;;;25.65;44.00;100781.44;4963147;28;45245;-60
2022/07/25 03:23:45;;;;;;;;;5.00;5.00;;;;;25.58;43.91;100778.66;4963635;28;45303;-59
2022/07/25 03:26:11;;;;;;;;;5.00;5.00;;;;;25.51;43.90;100785.81;4962908;28;45429;-59
2022/07/25 03:28:36;;;;;;;;;4.00;4.00;;;;;25.44;44.14;100787.63;4963078;28;45602;-59
2022/07/25 03:31:03;;;;;;;;;7.25;6.00;;;;;25.40;44.27;100793.56;4962778;28;45171;-59
2022/07/25 03:33:29;;;;;;;;;6.00;5.00;;;;;25.36;44.25;100782.31;4963445;28;45269;-60
2022/07/25 03:35:55;;;;;;;;;7.00;5.00;;;;;25.33;44.15;100796.16;4962868;28;45409;-60
2022/07/25 03:38:21;;;;;;;;;3.75;3.75;;;;;25.34;44.18;100800.53;4949570;28;45363;-60
2022/07/25 03:40:46;;;;;;;;;4.00;4.00;;;;;25.32;44.32;100794.50;4957556;28;45424;-60
2022/07/25 03:43:12;;;;;;;;;5.50;5.00;;;;;25.28;44.62;100798.59;4963120;28;45310;-60
2022/07/25 03:45:37;;;;;;;;;5.00;5.00;;;;;25.20;44.06;100810.31;4963071;28;45465;-59
2022/07/25 03:48:03;;;;;;;;;5.00;3.75;;;;;25.18;44.35;100814.19;4962814;28;46294;-59
2022/07/25 03:50:29;;;;;;;;;5.25;4.00;;;;;25.15;44.01;100820.78;4962776;28;45167;-60
2022/07/25 03:52:54;;;;;;;;;4.00;4.00;;;;;25.10;44.28;100825.06;4962959;28;45277;-63
2022/07/25 03:55:20;;;;;;;;;4.50;3.25;;;;;25.06;44.49;100827.28;4962651;28;45336;-59
2022/07/25 03:57:45;;;;;;;;;3.00;3.00;;;;;25.08;44.06;100827.94;4962681;28;45979;-59
2022/07/25 04:00:11;;;;;;;;;3.25;3.00;;;;;25.08;44.29;100836.03;4962820;28;45175;-59
2022/07/25 04:02:37;;;;;;;;;6.00;5.00;;;;;25.06;44.35;100835.38;4962793;28;45300;-60
2022/07/25 04:05:05;;;;;;;;;4.75;4.00;;;;;25.02;44.08;100837.56;4962671;28;45338;-60
2022/07/25 04:07:30;;;;;;;;;2.50;2.50;;;;;25.00;43.70;100834.22;4962605;28;45433;-59
2022/07/25 04:09:56;;;;;;;;;4.50;3.00;;;;;24.99;43.68;100835.22;4962454;28;45321;-59
2022/07/25 04:12:21;;;;;;;;;2.50;2.50;;;;;24.97;43.65;100837.28;4962379;28;45373;-59
2022/07/25 04:14:47;;;;;;;;;3.00;3.00;;;;;24.93;43.59;100835.13;4962479;28;45314;-59
2022/07/25 04:17:12;;;;;;;;;4.00;2.75;;;;;24.90;43.79;100827.41;4962206;28;45314;-59
2022/07/25 04:19:38;;;;;;;;;1.00;1.00;;;;;24.86;43.47;100823.38;4962347;28;45240;-59
2022/07/25 04:22:03;;;;;;;;;4.00;3.00;;;;;24.86;43.68;100823.38;4962756;28;45390;-59
2022/07/25 04:24:30;;;;;;;;;4.00;2.00;;;;;24.85;43.89;100836.03;4962512;28;45449;-59
2022/07/25 04:26:55;;;;;;;;;4.50;3.00;;;;;24.77;43.88;100836.94;4962183;28;45544;-60
2022/07/25 04:29:21;;;;;;;;;5.25;2.00;;;;;24.71;43.99;100842.19;4961905;28;45476;-60
2022/07/25 04:31:46;;;;;;;;;3.00;2.75;;;;;24.67;44.05;100843.59;4962441;28;45487;-59
2022/07/25 04:34:12;;;;;;;;;4.00;2.75;;;;;24.63;44.33;100850.34;4962080;28;45212;-60
2022/07/25 04:36:37;;;;;;;;;1.00;1.00;;;;;24.58;44.15;100852.75;4961925;28;46480;-60
2022/07/25 04:39:03;;;;;;;;;3.00;3.00;;;;;24.55;44.82;100845.03;4944400;28;45386;-60
2022/07/25 04:41:29;;;;;;;;;2.00;2.00;;;;;24.53;44.50;100858.66;4962252;28;45443;-60
2022/07/25 04:43:54;;;;;;;;;9.25;7.50;;;;;24.50;45.26;100854.50;4962052;28;45571;-60
2022/07/25 04:46:21;;;;;;;;;8.25;8.00;;;;;24.48;44.64;100856.50;4961815;28;45561;-60
2022/07/25 04:48:47;;;;;;;;;17.00;13.75;;;;;24.47;45.57;100854.81;4961766;28;45537;-60
2022/07/25 04:51:13;;;;;;;;;7.00;5.75;;;;;24.46;45.51;100865.78;4962057;28;45255;-60
2022/07/25 04:53:38;;;;;;;;;2.75;1.25;;;;;24.43;45.16;100868.84;4960827;28;45215;-60
2022/07/25 04:56:05;;;;;;;;;2.75;2.75;;;;;24.38;45.55;100874.75;4961498;28;45311;-60
2022/07/25 04:58:30;;;;;;;;;2.00;1.25;;;;;24.33;45.47;100869.06;4960422;28;45269;-60
2022/07/25 05:00:56;;;;;;;;;2.50;2.00;;;;;24.33;45.61;100861.00;4961735;28;45238;-60
2022/07/25 05:03:22;;;;;;;;;1.00;1.00;;;;;24.36;45.87;100865.19;4961792;28;45365;-60
2022/07/25 05:05:47;;;;;;;;;5.75;2.50;;;;;24.34;45.86;100857.28;4961501;28;46185;-60
2022/07/25 05:08:13;;;;;;;;;1.25;1.25;;;;;24.28;46.57;100855.25;4961435;28;45368;-60
2022/07/25 05:10:39;;;;;;;;;1.50;1.50;;;;;24.31;46.62;100865.66;4961691;28;45302;-60
2022/07/25 05:13:04;;;;;;;;;2.00;2.00;;;;;24.31;46.35;100862.97;4961430;28;45594;-60
2022/07/25 05:15:29;;;;;;;;;6.75;3.00;;;;;24.33;46.59;100869.06;4961325;28;45339;-60
2022/07/25 05:17:55;;;;;;;;;5.75;2.50;;;;;24.32;46.50;100870.06;4960139;28;45340;-60
2022/07/25 05:20:20;;;;;;;;;2.50;1.25;;;;;24.35;46.39;100864.34;4961886;28;45288;-60
2022/07/25 05:22:46;;;;;;;;;4.00;2.00;;;;;24.40;46.84;100870.00;4961638;28;45464;-61
2022/07/25 05:25:11;;;;;;;;;3.75;2.00;;;;;24.42;47.13;100878.78;4954104;28;45347;-60
2022/07/25 05:27:38;;;;;;;;;2.75;1.25;;;;;24.41;47.24;100871.72;4955720;28;45314;-62
2022/07/25 05:30:08;;;;;;;;;2.00;1.25;;;;;24.40;46.91;100878.09;4961633;28;45293;-60
2022/07/25 05:32:34;;;;;;;;;3.00;2.00;;;;;24.37;46.82;100880.31;4961179;28;45408;-60
2022/07/25 05:35:00;;;;;;;;;2.00;2.00;;;;;24.36;47.11;100887.56;4961229;28;45290;-60
2022/07/25 05:37:25;;;;;;;;;2.75;1.00;;;;;24.40;47.46;100891.56;4955114;28;45522;-60
2022/07/25 05:39:51;;;;;;;;;4.75;2.00;;;;;24.45;47.34;100891.88;4949920;28;45270;-60
2022/07/25 05:42:16;;;;;;;;;4.75;2.75;;;;;24.47;47.16;100899.78;4961180;28;45242;-60
2022/07/25 05:44:42;;;;;;;;;3.00;1.50;;;;;24.43;47.29;100891.22;4959854;28;45459;-60
2022/07/25 05:47:11;;;;;;;;;3.00;1.00;;;;;24.42;47.63;100894.94;4961080;28;45267;-60
2022/07/25 05:49:37;;;;;;;;;1.00;1.00;;;;;24.44;47.58;100892.91;4961534;28;45235;-60
2022/07/25 05:52:04;;;;;;;;;4.75;2.00;;;;;24.50;47.85;100894.06;4961278;28;45262;-60
2022/07/25 05:54:29;;;;;;;;;3.25;2.25;;;;;24.53;48.08;100899.06;4960986;28;46622;-60
2022/07/25 05:56:55;;;;;;;;;3.00;2.50;;;;;24.59;48.12;100906.44;4947544;28;45456;-60
2022/07/25 05:59:20;;;;;;;;;3.50;2.50;;;;;24.61;47.77;100908.94;4961353;28;45480;-60
2022/07/25 06:01:46;;;;;;;;;6.50;3.00;;;;;24.59;48.24;100906.44;4960977;28;45424;-60
2022/07/25 06:04:11;;;;;;;;;2.00;1.50;;;;;24.64;48.14;100905.88;4962325;28;45265;-60
2022/07/25 06:06:37;;;;;;;;;4.75;2.75;;;;;24.67;47.91;100901.00;4964188;28;45370;-60
2022/07/25 06:09:03;;;;;;;;;3.25;3.25;;;;;24.67;47.59;100908.25;4964589;28;45552;-60
2022/07/25 06:11:29;;;;;;;;;3.25;2.75;;;;;24.68;48.01;100918.00;4964147;28;45345;-60
2022/07/25 06:13:55;;;;;;;;;2.25;2.00;;;;;24.68;47.94;100909.91;4964131;28;45370;-60
2022/07/25 06:16:21;;;;;;;;;6.25;3.00;;;;;24.68;47.96;100916.16;4963933;28;45241;-60
2022/07/25 06:18:46;;;;;;;;;3.00;2.00;;;;;24.72;48.11;100917.44;4964216;28;45977;-60
2022/07/25 06:21:12;;;;;;;;;3.00;3.00;;;;;24.77;48.38;100922.31;4964307;28;45235;-60
2022/07/25 06:23:37;;;;;;;;;4.50;1.75;;;;;24.83;48.14;100924.28;4962674;28;45288;-60
2022/07/25 06:26:03;;;;;;;;;2.75;2.00;;;;;24.89;47.98;100928.13;4963702;28;45333;-60
2022/07/25 06:28:28;;;;;;;;;5.00;2.00;;;;;24.95;48.35;100930.94;4964237;28;45467;-60
2022/07/25 06:30:54;;;;;;;;;2.00;2.00;;;;;25.01;48.08;100932.91;4964068;28;45346;-60
2022/07/25 06:33:19;;;;;;;;;2.25;2.00;;;;;25.08;48.13;100926.84;4963892;28;45327;-60
2022/07/25 06:35:45;;;;;;;;;3.50;2.00;;;;;25.12;48.03;100928.13;4963689;28;45433;-60
2022/07/25 06:38:10;;;;;;;;;3.25;3.00;;;;;25.14;47.95;100934.22;4951719;28;45406;-60
2022/07/25 06:40:36;;;;;;;;;4.75;2.75;;;;;25.20;48.02;100946.94;4958087;28;45428;-60
2022/07/25 06:43:01;;;;;;;;;3.00;1.50;;;;;25.19;48.03;100942.56;4963709;28;45785;-60
2022/07/25 06:45:27;;;;;;;;;3.75;2.00;;;;;25.10;48.08;100943.66;4963719;28;45373;-60
2022/07/25 06:47:52;;;;;;;;;3.50;3.25;;;;;25.07;47.97;100944.03;4963939;28;45431;-60
2022/07/25 06:50:18;;;;;;;;;3.00;2.00;;;;;25.04;47.62;100947.91;4963935;28;45225;-60
2022/07/25 06:52:45;;;;;;;;;3.50;2.75;;;;;25.04;48.27;100950.59;4963586;28;46181;-60
2022/07/25 06:55:12;;;;;;;;;3.00;3.00;;;;;25.01;48.37;100950.94;4963265;28;45339;-60
2022/07/25 06:57:38;;;;;;;;;2.25;2.25;;;;;25.03;48.31;100963.25;4963837;28;45475;-60
2022/07/25 07:00:08;;;;;;;;;2.00;2.00;;;;;24.99;48.25;100956.53;4963592;28;45431;-60
2022/07/25 07:02:34;;;;;;;;;2.00;2.00;;;;;24.98;48.83;100956.72;4963552;28;46212;-60
2022/07/25 07:05:00;;;;;;;;;2.25;2.25;;;;;24.95;49.00;100965.97;4963240;28;45193;-60
2022/07/25 07:07:26;;;;;;;;;3.00;3.00;;;;;24.93;48.75;100968.00;4963512;28;45285;-60
2022/07/25 07:09:52;;;;;;;;;2.00;2.00;;;;;24.96;48.67;100967.66;4963362;28;45544;-60
2022/07/25 07:12:17;;;;;;;;;3.00;3.00;;;;;25.02;48.94;100963.41;4963145;28;45391;-60
2022/07/25 07:14:44;;;;;;;;;3.00;2.25;;;;;25.08;48.89;100967.28;4962743;28;45459;-60
2022/07/25 07:17:09;;;;;;;;;3.75;2.00;;;;;25.10;49.03;100973.31;4962665;28;45424;-60
2022/07/25 07:19:42;;;;;;;;;3.25;2.75;;;;;25.13;48.64;100972.97;4963325;28;45308;-59
2022/07/25 07:22:08;;;;;;;;;3.00;3.00;;;;;25.13;48.83;100971.13;4963112;28;46362;-61
2022/07/25 07:24:33;;;;;;;;;3.75;3.00;;;;;25.17;48.79;100969.72;4963094;28;45416;-60
2022/07/25 07:26:59;;;;;;;;;5.50;3.00;;;;;25.21;49.06;100964.81;4963247;28;45336;-60
2022/07/25 07:29:24;;;;;;;;;4.50;2.00;;;;;25.21;49.26;100972.91;4963187;28;45333;-60
2022/07/25 07:31:50;;;;;;;;;4.25;2.00;;;;;25.20;48.68;100974.78;4962719;28;45924;-60
2022/07/25 07:34:15;;;;;;;;;2.50;2.00;;;;;25.20;49.04;100976.59;4962974;28;45360;-60
2022/07/25 07:36:40;;;;;;;;;2.00;2.00;;;;;25.19;48.92;100970.38;4963042;28;45270;-60
2022/07/25 07:39:06;;;;;;;;;3.75;2.00;;;;;25.23;49.48;100976.25;4945353;28;45307;-59
2022/07/25 07:41:32;;;;;;;;;5.50;2.50;;;;;25.26;49.07;100990.19;4962597;28;45397;-60
2022/07/25 07:43:57;;;;;;;;;2.00;2.00;;;;;25.30;49.32;100983.44;4962836;28;45441;-60
2022/07/25 07:46:23;;;;;;;;;1.50;1.25;;;;;25.36;48.81;100987.28;4962971;28;45486;-60
2022/07/25 07:48:48;;;;;;;;;5.75;3.75;;;;;25.37;48.85;100988.13;4962950;28;45442;-60
2022/07/25 07:51:14;;;;;;;;;3.00;3.00;;;;;25.38;49.39;100990.63;4962684;28;45215;-60
2022/07/25 07:56:23;;;;;;;;;2.00;2.00;;;;;25.39;49.14;100988.78;4962557;28;45421;-60
2022/07/25 07:58:49;;;;;;;;;2.75;2.00;;;;;25.40;49.35;100993.13;4962680;28;45224;-60
2022/07/25 08:01:14;;;;;;;;;2.25;2.25;;;;;25.40;48.85;100988.59;4962569;28;45361;-60
2022/07/25 08:03:40;;;;;;;;;1.00;1.00;;;;;25.45;49.25;100999.69;4962490;28;45270;-60
2022/07/25 08:06:06;;;;;;;;;3.00;2.00;;;;;25.50;49.17;101008.03;4962754;28;45317;-60
2022/07/25 08:08:31;;;;;;;;;2.25;2.25;;;;;25.51;49.44;101001.63;4962643;28;45230;-60
2022/07/25 08:10:57;;;;;;;;;3.00;2.00;;;;;25.52;48.99;101006.03;4962155;28;46113;-60
2022/07/25 08:13:27;;;;;;;;;4.00;1.50;;;;;25.50;48.82;100994.56;4962279;28;45363;-60
2022/07/25 08:15:58;;;;;;;;;2.75;2.00;;;;;25.49;49.18;101003.66;4962312;28;45346;-60
2022/07/25 08:18:25;;;;;;;;;1.00;1.00;;;;;25.58;48.96;101007.13;4962326;28;45259;-60
2022/07/25 08:20:51;;;;;;;;;3.75;1.75;;;;;25.64;48.92;101009.09;4961058;28;45423;-59
2022/07/25 08:23:18;;;;;;;;;2.50;2.50;;;;;25.67;49.25;101019.53;4962228;28;45310;-60
2022/07/25 08:25:44;;;;;;;;;4.00;4.00;;;;;25.71;48.94;101006.53;4961990;28;45289;-60
2022/07/25 08:28:10;;;;;;;;;4.00;2.75;;;;;25.73;49.03;101009.91;4961992;28;45286;-60
2022/07/25 08:30:36;;;;;;;;;1.00;1.00;;;;;25.78;48.92;101010.19;4962083;28;45366;-60
2022/07/25 08:33:04;;;;;;;;;0.00;0.00;;;;;25.79;49.31;101014.56;4962019;28;45280;-60
2022/07/25 08:35:31;;;;;;;;;5.50;2.75;;;;;25.83;48.82;101005.94;4962083;28;45353;-60
2022/07/25 08:37:58;;;;;;;;;6.25;3.00;;;;;25.85;48.84;101009.28;4951848;28;45266;-60
2022/07/25 08:40:27;;;;;;;;;3.00;2.00;;;;;25.91;48.74;101013.13;4954529;28;45245;-60
2022/07/25 08:42:57;;;;;;;;;9.00;3.00;;;;;25.98;48.50;101013.19;4961908;28;45460;-60
2022/07/25 08:45:23;;;;;;;;;3.25;2.00;;;;;26.04;48.72;101016.00;4962018;28;45262;-60
2022/07/25 08:47:50;;;;;;;;;3.00;1.50;;;;;26.06;48.61;101015.81;4962305;28;45312;-59
2022/07/25 08:50:19;;;;;;;;;2.00;1.00;;;;;26.05;48.50;101014.13;4961725;28;46137;-60
2022/07/25 08:52:46;;;;;;;;;1.00;1.00;;;;;26.07;48.45;101012.09;4961633;28;45489;-60
2022/07/25 08:55:15;;;;;;;;;5.00;2.00;;;;;26.15;48.59;101022.81;4961481;28;45251;-60
2022/07/25 08:57:45;;;;;;;;;3.75;2.00;;;;;26.18;48.64;101030.53;4961862;28;45304;-60
2022/07/25 09:00:14;;;;;;;;;1.25;1.00;;;;;26.23;48.52;101022.72;4961679;28;45418;-60
2022/07/25 09:02:40;;;;;;;;;1.75;1.00;;;;;26.35;48.45;101017.69;4961929;28;45340;-60
2022/07/25 09:05:06;;;;;;;;;0.50;0.50;;;;;26.43;48.34;101023.84;4961823;28;45277;-60
2022/07/25 09:07:33;;;;;;;;;3.00;2.00;;;;;26.46;48.25;101021.78;4962212;28;45424;-60
2022/07/25 09:10:11;;;;;;;;;2.00;1.00;;;;;26.47;48.38;101026.19;4961283;28;45416;-60
2022/07/25 09:12:36;;;;;;;;;5.00;2.00;;;;;26.48;48.28;101031.41;4961688;28;45356;-60
2022/07/25 09:15:02;;;;;;;;;1.75;1.25;;;;;26.42;48.00;101030.28;4961664;28;45327;-60
2022/07/25 09:17:27;;;;;;;;;2.25;1.75;;;;;26.39;48.10;101040.63;4961670;28;45291;-60
2022/07/25 09:19:55;;;;;;;;;2.00;2.00;;;;;26.37;48.09;101038.06;4961451;28;45230;-60
2022/07/25 09:22:21;;;;;;;;;1.00;1.00;;;;;26.33;48.12;101046.75;4961574;28;45315;-60
2022/07/25 09:24:47;;;;;;;;;2.25;1.75;;;;;26.31;47.91;101051.50;4961202;28;45293;-60
2022/07/25 09:27:13;;;;;;;;;3.00;1.75;;;;;26.33;48.13;101044.03;4961754;28;45247;-60
2022/07/25 09:29:43;;;;;;;;;2.75;1.00;;;;;26.40;48.17;101053.13;4961247;28;45403;-65
2022/07/25 09:32:22;;;;;;;;;1.75;1.75;;;;;26.41;47.96;101054.78;4961255;28;45180;-60
2022/07/25 09:34:49;;;;;;;;;1.50;1.50;;;;;26.40;47.81;101045.00;4961432;28;45239;-60
2022/07/25 09:37:17;;;;;;;;;2.00;2.00;;;;;26.42;47.87;101049.19;4957111;28;45396;-60
2022/07/25 09:39:45;;;;;;;;;4.00;2.00;;;;;26.44;47.74;101049.00;4950673;28;45316;-60
2022/07/25 09:42:24;;;;;;;;;2.75;2.75;;;;;26.42;47.91;101053.75;4964835;28;45300;-60
2022/07/25 09:45:06;;;;;;;;;2.75;1.50;;;;;26.49;47.76;101061.97;4964725;28;45306;-60
2022/07/25 09:47:36;;;;;;;;;1.25;1.25;;;;;26.55;47.93;101061.22;4964483;28;45476;-60
2022/07/25 09:50:03;;;;;;;;;1.00;1.00;;;;;26.57;47.76;101065.41;4964246;28;46421;-60
2022/07/25 09:52:28;;;;;;;;;5.00;3.00;;;;;26.58;47.51;101068.94;4964351;28;45179;-60
2022/07/25 09:54:54;;;;;;;;;1.00;1.00;;;;;26.64;47.72;101055.50;4963119;28;45338;-60
2022/07/25 09:57:24;;;;;;;;;4.50;1.25;;;;;26.69;47.34;101065.75;4964565;28;45508;-60
2022/07/25 09:59:50;;;;;;;;;3.00;2.00;;;;;26.64;47.48;101063.63;4964408;28;46175;-60
2022/07/25 10:02:23;;;;;;;;;2.00;2.00;;;;;26.57;47.27;101068.09;4964147;28;45391;-59
2022/07/25 10:05:05;;;;;;;;;0.00;0.00;;;;;26.52;47.18;101064.28;4964701;28;45467;-60
2022/07/25 10:07:36;;;;;;;;;3.00;1.00;;;;;26.46;47.29;101068.56;4964760;28;45170;-60
2022/07/25 10:10:03;;;;;;;;;2.25;2.00;;;;;26.40;47.05;101067.47;4963929;28;46252;-60
2022/07/25 10:12:28;;;;;;;;;2.50;1.75;;;;;26.37;47.15;101075.03;4964311;28;45517;-59
2022/07/25 10:15:11;;;;;;;;;3.00;1.25;;;;;26.33;47.23;101071.06;4964292;28;45552;-59
2022/07/25 10:17:39;;;;;;;;;2.50;2.00;;;;;26.30;47.30;101066.84;4964307;28;45454;-59
2022/07/25 10:20:07;;;;;;;;;2.00;2.00;;;;;26.33;47.53;101071.88;4963751;28;45252;-60
2022/07/25 10:22:40;;;;;;;;;2.00;1.25;;;;;26.39;47.82;101081.16;4964268;28;45251;-59
2022/07/25 10:25:19;;;;;;;;;2.75;1.75;;;;;26.44;47.32;101079.56;4963814;28;45310;-59
2022/07/25 10:27:51;;;;;;;;;3.00;2.00;;;;;26.46;47.38;101075.81;4963890;28;45254;-59
2022/07/25 10:30:32;;;;;;;;;3.25;2.25;;;;;26.46;47.86;101083.94;4963973;28;45432;-59
2022/07/25 10:33:00;;;;;;;;;2.25;1.50;;;;;26.42;47.55;101078.91;4963634;28;45170;-59
2022/07/25 10:35:27;;;;;;;;;3.25;3.00;;;;;26.38;47.49;101079.41;4963983;28;45291;-59
2022/07/25 10:37:54;;;;;;;;;4.25;1.50;;;;;26.39;47.65;101094.66;4954061;28;45274;-59
2022/07/25 10:40:28;;;;;;;;;1.00;1.00;;;;;26.46;47.28;101092.88;4956024;28;45415;-61
2022/07/25 10:43:21;;;;;;;;;1.75;1.75;;;;;26.57;47.79;101095.13;4963820;28;45420;-59
2022/07/25 10:45:51;;;;;;;;;2.50;2.50;;;;;26.65;47.73;101086.06;4963380;28;45241;-59
2022/07/25 10:48:25;;;;;;;;;15.25;14.50;;;;;26.70;47.56;101095.31;4963768;28;45335;-59
2022/07/25 10:51:05;;;;;;;;;4.25;2.75;;;;;26.81;47.41;101098.56;4963262;28;45397;-59
2022/07/25 10:53:47;;;;;;;;;2.00;1.75;;;;;26.86;47.48;101104.22;4963658;28;45321;-59
2022/07/25 10:56:20;;;;;;;;;2.00;2.00;;;;;26.85;47.37;101094.44;4963559;28;45412;-59
2022/07/25 10:58:54;;;;;;;;;3.75;2.00;;;;;26.79;47.34;101103.31;4963438;28;45397;-59
2022/07/25 11:01:22;;;;;;;;;3.50;2.50;;;;;26.68;47.28;101105.44;4963270;28;46300;-59
2022/07/25 11:03:49;;;;;;;;;1.25;1.25;;;;;26.53;47.24;101101.91;4963159;28;45247;-59
2022/07/25 11:06:15;;;;;;;;;4.00;3.00;;;;;26.44;47.34;101109.28;4963437;28;45247;-60
2022/07/25 11:08:43;;;;;;;;;4.75;2.75;;;;;26.39;47.51;101109.00;4963364;28;45163;-59
2022/07/25 11:11:09;;;;;;;;;3.50;2.00;;;;;26.37;47.53;101108.28;4962908;28;45503;-59
2022/07/25 11:13:36;;;;;;;;;4.25;3.00;;;;;26.42;47.66;101114.03;4962952;28;45484;-59
2022/07/25 11:16:02;;;;;;;;;2.00;2.00;;;;;26.47;47.77;101108.06;4963082;28;45396;-59
2022/07/25 11:18:37;;;;;;;;;1.75;1.75;;;;;26.53;47.53;101110.00;4963193;28;45251;-59
2022/07/25 11:21:05;;;;;;;;;1.75;1.75;;;;;26.55;47.45;101113.38;4963219;28;45462;-59
2022/07/25 11:23:30;;;;;;;;;2.25;2.00;;;;;26.62;47.56;101105.34;4963041;28;45237;-59